createdAt,value
2022-11-04T00:02:06.241Z,20.94
2022-11-04T00:04:32.972Z,21.45
2022-11-04T00:06:59.909Z,21.16
2022-11-04T00:09:28.762Z,20.86
2022-11-04T00:12:14.316Z,21.41
2022-11-04T00:14:41.072Z,20.74
2022-11-04T00:17:22.270Z,20.16
2022-11-04T00:20:12.920Z,20.10
2022-11-04T00:23:01.226Z,20.36
2022-11-04T00:25:46.565Z,20.87
2022-11-04T00:28:35.911Z,21.26
2022-11-04T00:31:23.493Z,21.74
2022-11-04T00:33:52.388Z,22.09
2022-11-04T00:36:19.705Z,22.07
2022-11-04T00:38:46.354Z,22.01
2022-11-04T00:41:28.777Z,21.27
2022-11-04T00:44:02.454Z,21.08
2022-11-04T00:46:30.759Z,21.07
2022-11-04T00:48:58.380Z,21.08
2022-11-04T00:51:25.546Z,21.39
2022-11-04T00:53:52.190Z,21.37
2022-11-04T00:56:18.989Z,21.41
2022-11-04T00:58:45.575Z,21.66
2022-11-04T01:01:17.974Z,21.37
2022-11-04T01:03:49.983Z,21.18
2022-11-04T01:06:17.237Z,21.09
2022-11-04T01:08:43.983Z,21.09
2022-11-04T01:11:11.536Z,21.51
2022-11-04T01:13:39.576Z,21.21
2022-11-04T01:16:09.189Z,21.34
2022-11-04T01:18:36.225Z,21.82
2022-11-04T01:21:05.315Z,21.47
2022-11-04T01:23:32.099Z,21.77
2022-11-04T01:25:58.659Z,21.66
2022-11-04T01:28:25.335Z,21.53
2022-11-04T01:30:51.906Z,22.59
2022-11-04T01:33:18.471Z,22.52
2022-11-04T01:35:45.083Z,21.95
2022-11-04T01:38:12.084Z,21.86
2022-11-04T01:40:41.926Z,21.90
2022-11-04T01:43:15.785Z,22.08
2022-11-04T01:45:54.223Z,21.71
2022-11-04T01:48:24.516Z,21.36
2022-11-04T01:50:53.111Z,21.59
2022-11-04T01:53:29.023Z,21.73
2022-11-04T01:56:12.086Z,21.36
2022-11-04T01:58:42.542Z,21.42
2022-11-04T02:01:11.572Z,21.89
2022-11-04T02:03:46.174Z,21.53
2022-11-04T02:06:13.947Z,21.73
2022-11-04T02:08:41.150Z,21.85
2022-11-04T02:11:08.039Z,22.14
2022-11-04T02:13:36.693Z,21.97
2022-11-04T02:16:36.095Z,22.14
2022-11-04T02:19:31.835Z,22.15
2022-11-04T02:22:29.402Z,21.92
2022-11-04T02:25:20.714Z,21.69
2022-11-04T02:28:18.052Z,21.91
2022-11-04T02:30:52.227Z,21.97
2022-11-04T02:33:31.539Z,21.96
2022-11-04T02:36:15.583Z,21.90
2022-11-04T02:38:54.105Z,21.56
2022-11-04T02:41:39.861Z,22.11
2022-11-04T02:44:20.560Z,22.29
2022-11-04T02:46:54.416Z,22.38
2022-11-04T02:49:28.592Z,21.80
2022-11-04T02:52:05.478Z,22.32
2022-11-04T02:54:42.311Z,21.76
2022-11-04T02:57:15.785Z,22.21
2022-11-04T02:59:47.832Z,22.18
2022-11-04T03:02:19.799Z,21.98
2022-11-04T03:04:51.196Z,22.28
2022-11-04T03:07:24.754Z,22.68
2022-11-04T03:09:55.578Z,23.21
2022-11-04T03:12:28.639Z,23.38
2022-11-04T03:15:02.338Z,23.64
2022-11-04T03:17:54.434Z,23.58
2022-11-04T03:20:27.575Z,23.68
2022-11-04T03:22:59.623Z,23.33
2022-11-04T03:25:32.220Z,23.24
2022-11-04T03:28:15.621Z,23.08
2022-11-04T03:30:45.541Z,22.63
2022-11-04T03:33:17.322Z,22.01
2022-11-04T03:35:43.987Z,21.22
2022-11-04T03:38:10.793Z,22.10
2022-11-04T03:40:37.651Z,21.97
2022-11-04T03:43:14.896Z,21.72
2022-11-04T03:45:42.999Z,21.78
2022-11-04T03:48:10.118Z,22.40
2022-11-04T03:50:44.945Z,22.51
2022-11-04T03:53:14.782Z,22.42
2022-11-04T03:56:02.507Z,21.94
2022-11-04T03:58:49.625Z,22.43
2022-11-04T04:01:44.023Z,21.74
2022-11-04T04:04:23.290Z,22.38
2022-11-04T04:06:54.281Z,21.76
2022-11-04T04:09:23.579Z,21.72
2022-11-04T04:12:06.077Z,20.83
2022-11-04T04:14:40.012Z,21.23
2022-11-04T04:17:22.409Z,21.16
2022-11-04T04:19:57.258Z,21.57
2022-11-04T04:22:30.464Z,21.94
2022-11-04T04:25:18.116Z,21.92
2022-11-04T04:27:47.491Z,22.15
2022-11-04T04:30:16.210Z,22.58
2022-11-04T04:33:06.537Z,21.85
2022-11-04T04:35:43.291Z,22.12
2022-11-04T04:38:38.242Z,22.03
2022-11-04T04:41:38.290Z,21.88
2022-11-04T04:44:32.210Z,22.54
2022-11-04T04:47:01.797Z,22.07
2022-11-04T04:49:34.976Z,22.13
2022-11-04T04:52:04.405Z,22.03
2022-11-04T04:54:31.400Z,21.61
2022-11-04T04:56:58.558Z,22.04
2022-11-04T04:59:25.232Z,21.72
2022-11-04T05:01:51.889Z,22.35
2022-11-04T05:04:18.497Z,22.47
2022-11-04T05:06:45.046Z,22.32
2022-11-04T05:09:11.579Z,22.36
2022-11-04T05:11:38.146Z,22.45
2022-11-04T05:14:04.671Z,22.25
2022-11-04T05:16:32.754Z,22.67
2022-11-04T05:19:00.926Z,21.91
2022-11-04T05:21:27.476Z,21.55
2022-11-04T05:23:53.989Z,21.54
2022-11-04T05:26:20.652Z,21.08
2022-11-04T05:28:47.298Z,21.51
2022-11-04T05:31:13.854Z,21.99
2022-11-04T05:33:40.608Z,21.97
2022-11-04T05:36:15.150Z,21.41
2022-11-04T05:38:43.053Z,21.36
2022-11-04T05:41:12.749Z,21.89
2022-11-04T05:43:39.269Z,21.80
2022-11-04T05:46:05.946Z,21.49
2022-11-04T05:48:37.758Z,21.38
2022-11-04T05:51:07.416Z,21.04
2022-11-04T05:53:33.965Z,21.49
2022-11-04T05:56:00.515Z,21.47
2022-11-04T05:58:27.080Z,21.51
2022-11-04T06:00:53.653Z,20.89
2022-11-04T06:03:20.267Z,20.91
2022-11-04T06:05:46.926Z,21.18
2022-11-04T06:08:13.483Z,21.71
2022-11-04T06:10:40.033Z,21.68
2022-11-04T06:13:06.570Z,21.32
2022-11-04T06:15:33.121Z,21.37
2022-11-04T06:17:59.666Z,20.79
2022-11-04T06:20:26.193Z,21.41
2022-11-04T06:22:52.834Z,21.10
2022-11-04T06:25:19.388Z,21.25
2022-11-04T06:27:46.962Z,20.86
2022-11-04T06:30:13.607Z,20.84
2022-11-04T06:32:40.106Z,21.13
2022-11-04T06:35:08.821Z,21.55
2022-11-04T06:37:35.377Z,21.51
2022-11-04T06:40:02.237Z,21.31
2022-11-04T06:42:28.868Z,21.16
2022-11-04T06:44:55.835Z,21.36
2022-11-04T06:47:24.940Z,21.48
2022-11-04T06:49:52.084Z,20.48
2022-11-04T06:52:18.622Z,20.74
2022-11-04T06:54:47.438Z,20.64
2022-11-04T06:57:13.971Z,20.89
2022-11-04T06:59:40.501Z,21.33
2022-11-04T07:02:07.172Z,21.56
2022-11-04T07:04:33.830Z,20.90
2022-11-04T07:07:00.770Z,21.03
2022-11-04T07:09:27.368Z,21.31
2022-11-04T07:11:53.989Z,21.17
2022-11-04T07:14:20.553Z,21.65
2022-11-04T07:16:50.901Z,21.44
2022-11-04T07:19:17.552Z,21.88
2022-11-04T07:21:44.146Z,21.86
2022-11-04T07:24:10.708Z,21.75
2022-11-04T07:26:38.555Z,21.87
2022-11-04T07:29:06.662Z,22.55
2022-11-04T07:31:33.492Z,22.23
2022-11-04T07:34:00.117Z,22.51
2022-11-04T07:36:26.690Z,22.49
2022-11-04T07:38:54.135Z,22.57
2022-11-04T07:41:21.509Z,22.91
2022-11-04T07:43:49.921Z,22.89
2022-11-04T07:46:17.955Z,22.83
2022-11-04T07:48:44.611Z,22.57
2022-11-04T07:51:14.742Z,21.92
2022-11-04T07:53:41.279Z,21.74
2022-11-04T07:56:11.637Z,22.12
2022-11-04T07:58:38.651Z,21.68
2022-11-04T08:01:08.100Z,21.23
2022-11-04T08:03:36.697Z,21.31
2022-11-04T08:06:05.313Z,21.23
2022-11-04T08:08:32.009Z,21.59
2022-11-04T08:11:04.845Z,21.73
2022-11-04T08:13:33.338Z,21.50
2022-11-04T08:16:15.590Z,21.78
2022-11-04T08:18:43.645Z,22.87
2022-11-04T08:21:11.821Z,23.03
2022-11-04T08:23:38.684Z,23.24
2022-11-04T08:26:14.411Z,23.54
2022-11-04T08:28:41.074Z,23.20
2022-11-04T08:31:16.963Z,26.24
2022-11-04T08:33:44.527Z,24.32
2022-11-04T08:36:15.758Z,25.89
2022-11-04T08:38:42.962Z,24.61
2022-11-04T08:41:11.082Z,24.49
2022-11-04T08:43:38.188Z,23.88
2022-11-04T08:46:07.066Z,23.46
2022-11-04T08:48:38.202Z,23.05
2022-11-04T08:51:07.378Z,22.75
2022-11-04T08:53:34.322Z,22.40
2022-11-04T08:56:09.658Z,22.46
2022-11-04T08:58:36.283Z,22.78
2022-11-04T09:01:06.881Z,22.96
2022-11-04T09:03:34.761Z,22.32
2022-11-04T09:06:01.904Z,22.78
2022-11-04T09:08:28.446Z,22.43
2022-11-04T09:10:55.046Z,22.04
2022-11-04T09:13:21.658Z,22.14
2022-11-04T09:15:48.974Z,21.97
2022-11-04T09:18:15.860Z,22.37
2022-11-04T09:20:42.493Z,22.52
2022-11-04T09:23:09.649Z,22.96
2022-11-04T09:25:37.373Z,22.47
2022-11-04T09:28:04.576Z,22.94
2022-11-04T09:30:31.302Z,23.41
2022-11-04T09:32:58.257Z,22.81
2022-11-04T09:35:27.423Z,22.88
2022-11-04T09:37:54.296Z,23.36
2022-11-04T09:40:24.920Z,23.53
2022-11-04T09:43:19.598Z,23.17
2022-11-04T09:45:46.361Z,24.00
2022-11-04T09:48:25.255Z,24.02
2022-11-04T09:50:55.926Z,24.14
2022-11-04T09:53:36.001Z,24.16
2022-11-04T09:56:18.388Z,23.82
2022-11-04T09:58:45.002Z,24.40
2022-11-04T10:01:18.484Z,23.76
2022-11-04T10:04:12.830Z,23.70
2022-11-04T10:06:52.561Z,24.27
2022-11-04T10:09:31.287Z,24.43
2022-11-04T10:12:27.001Z,23.96
2022-11-04T10:15:18.552Z,23.86
2022-11-04T10:18:13.086Z,23.67
2022-11-04T10:21:17.412Z,23.72
2022-11-04T10:23:58.370Z,23.39
2022-11-04T10:26:36.215Z,23.33
2022-11-04T10:29:06.905Z,23.93
2022-11-04T10:31:38.621Z,23.21
2022-11-04T10:34:08.838Z,23.01
2022-11-04T10:36:38.251Z,23.81
2022-11-04T10:39:13.800Z,23.44
2022-11-04T10:41:40.830Z,23.81
2022-11-04T10:44:20.453Z,24.25
2022-11-04T10:46:59.378Z,23.71
2022-11-04T10:50:27.760Z,23.61
2022-11-04T10:52:47.041Z,24.05
2022-11-04T10:55:33.195Z,23.54
2022-11-04T10:58:01.964Z,23.62
2022-11-04T11:00:41.086Z,23.90
2022-11-04T11:03:27.809Z,24.31
2022-11-04T11:06:10.955Z,23.47
2022-11-04T11:08:38.731Z,24.07
2022-11-04T11:11:07.460Z,23.66
2022-11-04T11:13:41.071Z,24.17
2022-11-04T11:16:09.478Z,23.69
2022-11-04T11:18:38.250Z,24.10
2022-11-04T11:21:21.246Z,24.25
2022-11-04T11:23:50.990Z,23.57
2022-11-04T11:26:32.143Z,24.34
2022-11-04T11:29:03.988Z,24.83
2022-11-04T11:31:40.624Z,25.24
2022-11-04T11:34:18.542Z,25.54
2022-11-04T11:36:47.991Z,25.47
2022-11-04T11:39:23.039Z,25.15
2022-11-04T11:42:06.972Z,24.64
2022-11-04T11:44:44.188Z,24.22
2022-11-04T11:47:19.998Z,24.64
2022-11-04T11:49:46.633Z,24.69
2022-11-04T11:52:27.720Z,25.02
2022-11-04T11:55:01.782Z,24.84
2022-11-04T11:57:34.465Z,24.78
2022-11-04T12:09:51.106Z,25.47
2022-11-04T12:12:44.732Z,25.52
2022-11-04T12:15:47.476Z,25.03
2022-11-04T12:18:41.254Z,24.51
2022-11-04T12:21:26.018Z,25.00
2022-11-04T12:25:05.131Z,23.87
2022-11-04T12:27:43.797Z,25.09
2022-11-04T12:30:32.399Z,24.67
2022-11-04T12:34:03.102Z,24.37
2022-11-04T12:37:08.501Z,23.65
2022-11-04T12:40:03.136Z,24.02
2022-11-04T12:42:54.187Z,24.64
2022-11-04T12:45:35.484Z,24.87
2022-11-04T12:48:16.986Z,25.44
2022-11-04T12:51:28.603Z,25.37
2022-11-04T12:54:34.240Z,26.20
2022-11-04T12:57:26.203Z,25.57
2022-11-04T13:00:06.415Z,25.29
2022-11-04T13:03:04.341Z,25.88
2022-11-04T13:05:48.539Z,25.25
2022-11-04T13:08:22.894Z,25.00
2022-11-04T13:10:55.804Z,24.96
2022-11-04T13:13:41.062Z,25.69
2022-11-04T13:16:12.270Z,26.23
2022-11-04T13:18:42.620Z,26.43
2022-11-04T13:21:18.824Z,26.23
2022-11-04T13:23:57.220Z,26.51
2022-11-04T13:26:24.190Z,26.51
2022-11-04T13:29:04.378Z,26.55
2022-11-04T13:31:47.948Z,26.62
2022-11-04T13:34:45.806Z,25.78
2022-11-04T13:37:26.844Z,26.63
2022-11-04T13:40:10.712Z,25.91
2022-11-04T13:43:22.256Z,25.73
2022-11-04T13:45:52.406Z,25.68
2022-11-04T13:48:23.075Z,26.27
2022-11-04T13:51:07.114Z,26.59
2022-11-04T13:53:43.817Z,27.05
2022-11-04T13:56:34.856Z,26.82
2022-11-04T13:59:27.529Z,26.27
2022-11-04T14:02:12.688Z,25.76
2022-11-04T14:04:47.530Z,26.32
2022-11-04T14:07:18.402Z,26.82
2022-11-04T14:09:55.022Z,26.34
2022-11-04T14:12:35.968Z,26.48
2022-11-04T14:15:12.509Z,26.51
2022-11-04T14:17:40.056Z,26.49
2022-11-04T14:20:31.281Z,26.53
2022-11-04T14:23:01.799Z,26.63
2022-11-04T14:25:37.884Z,26.85
2022-11-04T14:28:17.116Z,26.62
2022-11-04T14:30:48.305Z,26.60
2022-11-04T14:33:37.523Z,26.59
2022-11-04T14:36:19.871Z,26.89
2022-11-04T14:38:59.439Z,26.96
2022-11-04T14:41:28.949Z,26.91
2022-11-04T14:44:02.778Z,26.74
2022-11-04T14:46:47.982Z,27.04
2022-11-04T14:49:50.564Z,26.67
2022-11-04T14:52:29.301Z,27.14
2022-11-04T14:55:22.004Z,26.92
2022-11-04T14:58:04.865Z,27.12
2022-11-04T15:00:48.526Z,26.54
2022-11-04T15:06:11.617Z,26.10
2022-11-04T15:08:41.291Z,26.38
2022-11-04T15:11:39.827Z,26.01
2022-11-04T15:14:13.918Z,26.39
2022-11-04T15:16:41.210Z,25.88
2022-11-04T15:19:09.572Z,25.53
2022-11-04T15:21:48.029Z,25.47
2022-11-04T15:24:20.253Z,25.90
2022-11-04T15:27:05.138Z,25.78
2022-11-04T15:29:35.265Z,25.94
2022-11-04T15:32:05.353Z,26.25
2022-11-04T15:34:53.906Z,26.33
2022-11-04T15:37:24.099Z,26.31
2022-11-04T15:40:01.678Z,25.98
2022-11-04T15:42:45.875Z,25.86
2022-11-04T15:45:22.631Z,25.94
2022-11-04T15:47:50.968Z,25.98
2022-11-04T15:50:30.680Z,25.99
2022-11-04T15:52:58.452Z,25.95
2022-11-04T15:55:34.188Z,25.92
2022-11-04T15:58:04.007Z,25.66
2022-11-04T16:00:30.732Z,25.54
2022-11-04T16:02:59.743Z,25.56
2022-11-04T16:05:37.013Z,25.52
2022-11-04T16:08:23.192Z,25.52
2022-11-04T16:10:50.559Z,25.51
2022-11-04T16:13:17.200Z,25.42
2022-11-04T16:15:50.514Z,25.36
2022-11-04T16:18:38.949Z,25.23
2022-11-04T16:21:08.174Z,25.15
2022-11-04T16:23:44.727Z,25.01
2022-11-04T16:26:12.323Z,24.94
2022-11-04T16:28:40.632Z,24.84
2022-11-04T16:31:22.957Z,24.84
2022-11-04T16:33:50.710Z,24.74
2022-11-04T16:36:23.639Z,24.55
2022-11-04T16:38:57.753Z,24.53
2022-11-04T16:41:27.074Z,24.55
2022-11-04T16:43:54.733Z,24.50
2022-11-04T16:46:22.389Z,24.62
2022-11-04T16:48:49.616Z,24.57
2022-11-04T16:51:20.850Z,24.60
2022-11-04T16:53:54.497Z,24.56
2022-11-04T16:56:24.771Z,24.47
2022-11-04T16:58:52.662Z,24.29
2022-11-04T17:01:21.153Z,24.37
2022-11-04T17:03:47.997Z,24.28
2022-11-04T17:06:15.295Z,24.35
2022-11-04T17:08:42.135Z,24.15
2022-11-04T17:11:10.223Z,24.20
2022-11-04T17:13:37.412Z,24.15
2022-11-04T17:16:06.217Z,24.13
2022-11-04T17:18:34.656Z,24.08
2022-11-04T17:21:08.823Z,24.00
2022-11-04T17:23:35.803Z,24.03
2022-11-04T17:26:02.944Z,23.94
2022-11-04T17:28:31.456Z,23.84
2022-11-04T17:31:00.802Z,23.84
2022-11-04T17:33:27.723Z,23.85
2022-11-04T17:35:54.460Z,23.93
2022-11-04T17:38:21.135Z,23.80
2022-11-04T17:41:06.146Z,23.78
2022-11-04T17:43:52.310Z,23.68
2022-11-04T17:46:35.524Z,23.65
2022-11-04T17:49:13.548Z,23.57
2022-11-04T17:51:43.138Z,23.09
2022-11-04T17:54:10.567Z,22.41
2022-11-04T17:56:38.269Z,22.58
2022-11-04T17:59:05.165Z,22.93
2022-11-04T18:01:33.889Z,22.99
2022-11-04T18:04:01.090Z,23.07
2022-11-04T18:06:49.422Z,23.07
2022-11-04T18:09:18.042Z,22.96
2022-11-04T18:12:11.195Z,22.88
2022-11-04T18:14:37.889Z,22.95
2022-11-04T18:17:05.583Z,22.82
2022-11-04T18:19:32.187Z,21.85
2022-11-04T18:21:58.725Z,22.43
2022-11-04T18:24:25.367Z,22.66
2022-11-04T18:26:52.441Z,22.59
2022-11-04T18:29:19.092Z,22.66
2022-11-04T18:31:49.247Z,22.77
2022-11-04T18:34:18.774Z,22.82
2022-11-04T18:36:46.994Z,22.87
2022-11-04T18:39:16.133Z,22.81
2022-11-04T18:41:43.085Z,22.79
2022-11-04T18:44:15.438Z,22.82
2022-11-04T18:46:42.591Z,22.84
2022-11-04T18:49:10.707Z,22.81
2022-11-04T18:51:37.532Z,22.67
2022-11-04T18:54:05.455Z,22.69
2022-11-04T18:56:32.522Z,22.68
2022-11-04T18:58:59.630Z,22.57
2022-11-04T19:01:29.325Z,22.49
2022-11-04T19:03:56.003Z,22.50
2022-11-04T19:06:26.409Z,22.41
2022-11-04T19:08:59.573Z,22.00
2022-11-04T19:11:31.524Z,22.17
2022-11-04T19:14:05.071Z,22.18
2022-11-04T19:16:35.432Z,22.18
2022-11-04T19:19:04.544Z,22.06
2022-11-04T19:21:31.636Z,21.92
2022-11-04T19:23:59.901Z,22.11
2022-11-04T19:26:32.372Z,22.18
2022-11-04T19:29:00.835Z,22.19
2022-11-04T19:31:29.902Z,22.11
2022-11-04T19:34:04.111Z,22.13
2022-11-04T19:36:33.016Z,22.09
2022-11-04T19:39:00.014Z,22.14
2022-11-04T19:41:46.126Z,22.13
2022-11-04T19:44:16.759Z,22.08
2022-11-04T19:46:44.507Z,21.93
2022-11-04T19:49:12.812Z,21.98
2022-11-04T19:51:39.828Z,21.91
2022-11-04T19:54:06.849Z,21.85
2022-11-04T19:56:36.281Z,21.79
2022-11-04T19:59:07.507Z,21.75
2022-11-04T20:01:35.361Z,21.66
2022-11-04T20:04:03.904Z,21.60
2022-11-04T20:06:32.975Z,21.59
2022-11-04T20:09:06.351Z,21.60
2022-11-04T20:11:34.693Z,21.48
2022-11-04T20:14:07.668Z,21.54
2022-11-04T20:16:39.814Z,21.49
2022-11-04T20:19:06.897Z,21.47
2022-11-04T20:21:36.144Z,21.46
2022-11-04T20:24:06.749Z,21.43
2022-11-04T20:26:35.577Z,21.41
2022-11-04T20:29:03.235Z,21.41
2022-11-04T20:31:32.574Z,21.37
2022-11-04T20:34:02.641Z,21.34
2022-11-04T20:36:29.253Z,21.28
2022-11-04T20:39:05.147Z,21.30
2022-11-04T20:41:31.954Z,21.22
2022-11-04T20:43:58.896Z,21.39
2022-11-04T20:46:30.616Z,21.32
2022-11-04T20:48:59.110Z,21.35
2022-11-04T20:51:28.851Z,21.36
2022-11-04T20:54:00.124Z,21.38
2022-11-04T20:56:32.736Z,21.36
2022-11-04T20:59:00.488Z,21.22
2022-11-04T21:01:30.275Z,21.28
2022-11-04T21:04:01.261Z,21.25
2022-11-04T21:06:29.020Z,21.15
2022-11-04T21:08:56.855Z,21.23
2022-11-04T21:11:27.465Z,21.24
2022-11-04T21:13:56.993Z,21.21
2022-11-04T21:16:24.607Z,21.15
2022-11-04T21:18:51.542Z,21.03
2022-11-04T21:21:18.303Z,20.97
2022-11-04T21:23:47.226Z,20.60
2022-11-04T21:26:24.640Z,20.84
2022-11-04T21:28:56.513Z,20.91
2022-11-04T21:31:24.408Z,20.93
2022-11-04T21:33:51.887Z,20.80
2022-11-04T21:36:19.774Z,20.76
2022-11-04T21:38:46.720Z,20.78
2022-11-04T21:41:16.412Z,20.92
2022-11-04T21:43:43.174Z,20.88
2022-11-04T21:46:13.204Z,20.82
2022-11-04T21:48:40.922Z,20.84
2022-11-04T21:51:10.674Z,20.74
2022-11-04T21:53:37.283Z,20.74
2022-11-04T21:56:19.252Z,20.58
2022-11-04T21:58:46.502Z,20.56
2022-11-04T22:01:16.385Z,20.69
2022-11-04T22:03:43.588Z,20.69
2022-11-04T22:06:12.669Z,20.72
2022-11-04T22:08:43.278Z,20.59
2022-11-04T22:11:11.239Z,20.61
2022-11-04T22:13:38.099Z,20.64
2022-11-04T22:16:18.967Z,20.62
2022-11-04T22:18:46.453Z,20.54
2022-11-04T22:21:17.836Z,20.46
2022-11-04T22:23:45.060Z,20.50
2022-11-04T22:26:14.775Z,20.28
2022-11-04T22:28:41.713Z,20.37
2022-11-04T22:31:15.763Z,20.50
2022-11-04T22:33:43.037Z,20.48
2022-11-04T22:36:10.848Z,20.50
2022-11-04T22:38:38.311Z,20.43
2022-11-04T22:41:07.176Z,20.52
2022-11-04T22:43:34.194Z,20.59
2022-11-04T22:46:08.808Z,20.57
2022-11-04T22:48:36.362Z,20.59
2022-11-04T22:51:02.982Z,20.58
2022-11-04T22:53:29.569Z,20.59
2022-11-04T23:01:01.928Z,20.42
2022-11-04T23:03:28.974Z,20.39
2022-11-04T23:05:57.275Z,20.37
2022-11-04T23:08:25.815Z,20.29
2022-11-04T23:11:23.151Z,20.23
2022-11-04T23:14:20.181Z,20.32
2022-11-04T23:17:08.672Z,20.36
2022-11-04T23:19:36.246Z,20.39
2022-11-04T23:22:21.257Z,20.27
2022-11-04T23:25:06.215Z,20.34
2022-11-04T23:27:57.452Z,20.17
2022-11-04T23:30:25.507Z,20.15
2022-11-04T23:32:59.885Z,20.22
2022-11-04T23:35:56.707Z,20.12
2022-11-04T23:38:24.688Z,20.22
2022-11-04T23:41:15.122Z,20.24
2022-11-04T23:43:41.980Z,20.11
2022-11-04T23:46:27.117Z,20.14
2022-11-04T23:49:12.250Z,20.15
2022-11-04T23:51:57.511Z,20.07
2022-11-04T23:54:42.727Z,20.02
2022-11-04T23:57:36.176Z,19.93
